sensor_id;sensor_type;location;lat;lon;timestamp;P1;durP1;ratioP1;P2;durP2;ratioP2
4595;SDS011;2310;49.978;8.742;2024-01-16T00:03:25;7.90;;;4.80;;
4595;SDS011;2310;49.978;8.742;2024-01-16T00:07:26;11.70;;;5.40;;
4595;SDS011;2310;49.978;8.742;2024-01-16T00:11:28;7.93;;;5.40;;
4595;SDS011;2310;49.978;8.742;2024-01-16T00:15:29;9.33;;;4.90;;
4595;SDS011;2310;49.978;8.742;2024-01-16T00:19:30;9.83;;;5.00;;
4595;SDS011;2310;49.978;8.742;2024-01-16T00:23:32;9.10;;;5.33;;
4595;SDS011;2310;49.978;8.742;2024-01-16T00:27:33;9.70;;;4.70;;
4595;SDS011;2310;49.978;8.742;2024-01-16T00:31:35;9.63;;;5.07;;
4595;SDS011;2310;49.978;8.742;2024-01-16T00:35:36;7.93;;;5.40;;
4595;SDS011;2310;49.978;8.742;2024-01-16T00:39:38;9.27;;;6.07;;
4595;SDS011;2310;49.978;8.742;2024-01-16T00:43:40;8.83;;;5.37;;
4595;SDS011;2310;49.978;8.742;2024-01-16T00:47:43;8.40;;;4.83;;
4595;SDS011;2310;49.978;8.742;2024-01-16T00:51:44;8.00;;;5.60;;
4595;SDS011;2310;49.978;8.742;2024-01-16T00:55:45;12.90;;;5.93;;
4595;SDS011;2310;49.978;8.742;2024-01-16T00:59:47;13.97;;;5.10;;
4595;SDS011;2310;49.978;8.742;2024-01-16T01:03:48;12.60;;;5.50;;
4595;SDS011;2310;49.978;8.742;2024-01-16T01:07:50;9.40;;;5.40;;
4595;SDS011;2310;49.978;8.742;2024-01-16T01:11:51;10.57;;;5.90;;
4595;SDS011;2310;49.978;8.742;2024-01-16T01:15:53;9.83;;;5.60;;
4595;SDS011;2310;49.978;8.742;2024-01-16T01:19:54;8.33;;;5.50;;
4595;SDS011;2310;49.978;8.742;2024-01-16T01:23:55;8.80;;;5.80;;
4595;SDS011;2310;49.978;8.742;2024-01-16T01:27:57;12.23;;;5.77;;
4595;SDS011;2310;49.978;8.742;2024-01-16T01:31:58;10.53;;;5.50;;
4595;SDS011;2310;49.978;8.742;2024-01-16T01:36:00;11.73;;;6.10;;
4595;SDS011;2310;49.978;8.742;2024-01-16T01:40:01;12.33;;;6.20;;
4595;SDS011;2310;49.978;8.742;2024-01-16T01:44:04;10.07;;;5.80;;
4595;SDS011;2310;49.978;8.742;2024-01-16T01:48:06;10.17;;;5.73;;
4595;SDS011;2310;49.978;8.742;2024-01-16T01:52:08;11.63;;;6.03;;
4595;SDS011;2310;49.978;8.742;2024-01-16T01:56:14;9.70;;;5.93;;
4595;SDS011;2310;49.978;8.742;2024-01-16T02:00:15;8.40;;;6.40;;
4595;SDS011;2310;49.978;8.742;2024-01-16T02:04:19;9.33;;;6.40;;
4595;SDS011;2310;49.978;8.742;2024-01-16T02:08:21;7.10;;;5.73;;
4595;SDS011;2310;49.978;8.742;2024-01-16T02:12:23;15.13;;;7.10;;
4595;SDS011;2310;49.978;8.742;2024-01-16T02:16:26;10.70;;;6.60;;
4595;SDS011;2310;49.978;8.742;2024-01-16T02:20:27;12.00;;;6.90;;
4595;SDS011;2310;49.978;8.742;2024-01-16T02:24:29;9.73;;;6.60;;
4595;SDS011;2310;49.978;8.742;2024-01-16T02:28:30;10.63;;;7.97;;
4595;SDS011;2310;49.978;8.742;2024-01-16T02:32:32;11.17;;;7.43;;
4595;SDS011;2310;49.978;8.742;2024-01-16T02:36:33;12.47;;;7.40;;
4595;SDS011;2310;49.978;8.742;2024-01-16T02:40:35;15.73;;;7.67;;
4595;SDS011;2310;49.978;8.742;2024-01-16T02:44:36;10.03;;;7.37;;
4595;SDS011;2310;49.978;8.742;2024-01-16T02:48:38;10.53;;;6.50;;
4595;SDS011;2310;49.978;8.742;2024-01-16T02:52:39;8.77;;;6.20;;
4595;SDS011;2310;49.978;8.742;2024-01-16T02:56:41;10.93;;;7.60;;
4595;SDS011;2310;49.978;8.742;2024-01-16T03:00:42;11.23;;;7.13;;
4595;SDS011;2310;49.978;8.742;2024-01-16T03:04:44;9.53;;;6.63;;
4595;SDS011;2310;49.978;8.742;2024-01-16T03:08:45;10.03;;;6.87;;
4595;SDS011;2310;49.978;8.742;2024-01-16T03:12:46;10.30;;;7.17;;
4595;SDS011;2310;49.978;8.742;2024-01-16T03:16:48;10.73;;;7.17;;
4595;SDS011;2310;49.978;8.742;2024-01-16T03:20:49;9.57;;;6.10;;
4595;SDS011;2310;49.978;8.742;2024-01-16T03:24:50;11.17;;;7.50;;
4595;SDS011;2310;49.978;8.742;2024-01-16T03:28:52;12.83;;;7.13;;
4595;SDS011;2310;49.978;8.742;2024-01-16T03:32:53;11.10;;;7.83;;
4595;SDS011;2310;49.978;8.742;2024-01-16T03:36:55;11.87;;;7.30;;
4595;SDS011;2310;49.978;8.742;2024-01-16T03:40:56;10.47;;;6.77;;
4595;SDS011;2310;49.978;8.742;2024-01-16T03:44:57;10.60;;;7.17;;
4595;SDS011;2310;49.978;8.742;2024-01-16T03:48:59;15.17;;;8.00;;
4595;SDS011;2310;49.978;8.742;2024-01-16T03:53:01;13.70;;;8.27;;
4595;SDS011;2310;49.978;8.742;2024-01-16T03:57:03;11.57;;;7.87;;
4595;SDS011;2310;49.978;8.742;2024-01-16T04:01:04;11.37;;;7.87;;
4595;SDS011;2310;49.978;8.742;2024-01-16T04:05:06;11.17;;;7.90;;
4595;SDS011;2310;49.978;8.742;2024-01-16T04:09:08;18.03;;;7.90;;
4595;SDS011;2310;49.978;8.742;2024-01-16T04:13:10;11.37;;;7.87;;
4595;SDS011;2310;49.978;8.742;2024-01-16T04:17:11;12.47;;;8.07;;
4595;SDS011;2310;49.978;8.742;2024-01-16T04:21:13;12.47;;;7.07;;
4595;SDS011;2310;49.978;8.742;2024-01-16T04:25:16;11.20;;;7.60;;
4595;SDS011;2310;49.978;8.742;2024-01-16T04:29:17;10.80;;;7.70;;
4595;SDS011;2310;49.978;8.742;2024-01-16T04:33:19;12.40;;;7.60;;
4595;SDS011;2310;49.978;8.742;2024-01-16T04:37:20;10.37;;;8.30;;
4595;SDS011;2310;49.978;8.742;2024-01-16T04:41:22;12.47;;;8.07;;
4595;SDS011;2310;49.978;8.742;2024-01-16T04:45:23;12.73;;;7.57;;
4595;SDS011;2310;49.978;8.742;2024-01-16T04:49:25;13.90;;;7.67;;
4595;SDS011;2310;49.978;8.742;2024-01-16T04:53:27;12.50;;;7.20;;
4595;SDS011;2310;49.978;8.742;2024-01-16T04:57:28;11.30;;;8.00;;
4595;SDS011;2310;49.978;8.742;2024-01-16T05:01:29;12.13;;;8.63;;
4595;SDS011;2310;49.978;8.742;2024-01-16T05:05:31;12.00;;;8.73;;
4595;SDS011;2310;49.978;8.742;2024-01-16T05:09:32;12.87;;;7.70;;
4595;SDS011;2310;49.978;8.742;2024-01-16T05:13:34;11.53;;;6.90;;
4595;SDS011;2310;49.978;8.742;2024-01-16T05:17:35;13.43;;;7.70;;
4595;SDS011;2310;49.978;8.742;2024-01-16T05:21:37;13.10;;;8.40;;
4595;SDS011;2310;49.978;8.742;2024-01-16T05:25:38;13.43;;;7.67;;
4595;SDS011;2310;49.978;8.742;2024-01-16T05:29:40;12.43;;;7.70;;
4595;SDS011;2310;49.978;8.742;2024-01-16T05:33:44;18.50;;;8.40;;
4595;SDS011;2310;49.978;8.742;2024-01-16T05:37:45;12.00;;;7.77;;
4595;SDS011;2310;49.978;8.742;2024-01-16T05:41:47;14.53;;;8.07;;
4595;SDS011;2310;49.978;8.742;2024-01-16T05:45:48;12.93;;;8.53;;
4595;SDS011;2310;49.978;8.742;2024-01-16T05:49:52;16.27;;;9.73;;
4595;SDS011;2310;49.978;8.742;2024-01-16T05:53:54;12.83;;;8.50;;
4595;SDS011;2310;49.978;8.742;2024-01-16T05:57:56;12.30;;;8.23;;
4595;SDS011;2310;49.978;8.742;2024-01-16T06:01:57;15.60;;;9.27;;
4595;SDS011;2310;49.978;8.742;2024-01-16T06:05:58;12.30;;;7.50;;
4595;SDS011;2310;49.978;8.742;2024-01-16T06:10:00;12.73;;;8.00;;
4595;SDS011;2310;49.978;8.742;2024-01-16T06:14:01;16.20;;;7.90;;
4595;SDS011;2310;49.978;8.742;2024-01-16T06:18:03;16.97;;;9.40;;
4595;SDS011;2310;49.978;8.742;2024-01-16T06:22:05;13.07;;;8.70;;
4595;SDS011;2310;49.978;8.742;2024-01-16T06:26:07;12.47;;;8.10;;
4595;SDS011;2310;49.978;8.742;2024-01-16T06:30:09;15.67;;;7.93;;
4595;SDS011;2310;49.978;8.742;2024-01-16T06:34:12;16.00;;;9.10;;
4595;SDS011;2310;49.978;8.742;2024-01-16T06:38:13;13.07;;;8.00;;
4595;SDS011;2310;49.978;8.742;2024-01-16T06:42:14;16.77;;;9.60;;
4595;SDS011;2310;49.978;8.742;2024-01-16T06:46:16;12.60;;;8.83;;
4595;SDS011;2310;49.978;8.742;2024-01-16T06:50:17;13.30;;;8.60;;
4595;SDS011;2310;49.978;8.742;2024-01-16T06:54:18;15.80;;;8.67;;
4595;SDS011;2310;49.978;8.742;2024-01-16T06:58:21;13.30;;;8.97;;
4595;SDS011;2310;49.978;8.742;2024-01-16T07:02:22;17.50;;;9.60;;
4595;SDS011;2310;49.978;8.742;2024-01-16T07:06:24;12.13;;;9.03;;
4595;SDS011;2310;49.978;8.742;2024-01-16T07:10:25;15.70;;;9.17;;
4595;SDS011;2310;49.978;8.742;2024-01-16T07:14:26;14.70;;;8.80;;
4595;SDS011;2310;49.978;8.742;2024-01-16T07:18:28;18.77;;;9.30;;
4595;SDS011;2310;49.978;8.742;2024-01-16T07:22:29;14.53;;;9.43;;
4595;SDS011;2310;49.978;8.742;2024-01-16T07:26:31;12.83;;;9.83;;
4595;SDS011;2310;49.978;8.742;2024-01-16T07:30:32;14.67;;;8.53;;
4595;SDS011;2310;49.978;8.742;2024-01-16T07:34:33;11.77;;;6.87;;
4595;SDS011;2310;49.978;8.742;2024-01-16T07:38:35;12.70;;;7.70;;
4595;SDS011;2310;49.978;8.742;2024-01-16T07:42:37;13.10;;;7.60;;
4595;SDS011;2310;49.978;8.742;2024-01-16T07:46:38;13.20;;;8.00;;
4595;SDS011;2310;49.978;8.742;2024-01-16T07:50:40;14.57;;;8.00;;
4595;SDS011;2310;49.978;8.742;2024-01-16T07:54:42;14.57;;;8.43;;
4595;SDS011;2310;49.978;8.742;2024-01-16T07:58:43;15.23;;;8.73;;
4595;SDS011;2310;49.978;8.742;2024-01-16T08:02:45;16.37;;;8.33;;
4595;SDS011;2310;49.978;8.742;2024-01-16T08:06:46;11.83;;;7.60;;
4595;SDS011;2310;49.978;8.742;2024-01-16T08:10:48;13.40;;;8.73;;
4595;SDS011;2310;49.978;8.742;2024-01-16T08:14:49;12.00;;;8.30;;
4595;SDS011;2310;49.978;8.742;2024-01-16T08:18:51;14.60;;;7.93;;
4595;SDS011;2310;49.978;8.742;2024-01-16T08:22:53;13.67;;;8.30;;
4595;SDS011;2310;49.978;8.742;2024-01-16T08:26:54;13.33;;;7.97;;
4595;SDS011;2310;49.978;8.742;2024-01-16T08:30:58;12.10;;;7.67;;
4595;SDS011;2310;49.978;8.742;2024-01-16T08:34:59;11.50;;;7.90;;
4595;SDS011;2310;49.978;8.742;2024-01-16T08:39:01;15.60;;;8.60;;
4595;SDS011;2310;49.978;8.742;2024-01-16T08:43:02;12.53;;;8.67;;
4595;SDS011;2310;49.978;8.742;2024-01-16T08:47:04;16.40;;;9.07;;
4595;SDS011;2310;49.978;8.742;2024-01-16T08:51:07;11.47;;;7.67;;
4595;SDS011;2310;49.978;8.742;2024-01-16T08:55:11;14.47;;;9.47;;
4595;SDS011;2310;49.978;8.742;2024-01-16T08:59:12;15.33;;;8.67;;
4595;SDS011;2310;49.978;8.742;2024-01-16T09:03:14;16.03;;;10.90;;
4595;SDS011;2310;49.978;8.742;2024-01-16T09:07:15;15.07;;;8.57;;
4595;SDS011;2310;49.978;8.742;2024-01-16T09:11:17;13.87;;;9.60;;
4595;SDS011;2310;49.978;8.742;2024-01-16T09:15:19;14.17;;;8.60;;
4595;SDS011;2310;49.978;8.742;2024-01-16T09:19:21;15.90;;;9.57;;
4595;SDS011;2310;49.978;8.742;2024-01-16T09:23:22;15.87;;;8.43;;
4595;SDS011;2310;49.978;8.742;2024-01-16T09:27:24;12.57;;;8.07;;
4595;SDS011;2310;49.978;8.742;2024-01-16T09:31:26;11.50;;;8.93;;
4595;SDS011;2310;49.978;8.742;2024-01-16T09:35:27;12.13;;;8.30;;
4595;SDS011;2310;49.978;8.742;2024-01-16T09:39:28;13.83;;;8.40;;
4595;SDS011;2310;49.978;8.742;2024-01-16T09:43:32;14.20;;;9.77;;
4595;SDS011;2310;49.978;8.742;2024-01-16T09:47:34;18.87;;;8.93;;
4595;SDS011;2310;49.978;8.742;2024-01-16T09:51:38;18.63;;;9.37;;
4595;SDS011;2310;49.978;8.742;2024-01-16T09:55:39;15.00;;;8.57;;
4595;SDS011;2310;49.978;8.742;2024-01-16T09:59:41;12.93;;;7.97;;
4595;SDS011;2310;49.978;8.742;2024-01-16T10:03:44;15.30;;;9.37;;
4595;SDS011;2310;49.978;8.742;2024-01-16T10:07:46;11.40;;;7.67;;
4595;SDS011;2310;49.978;8.742;2024-01-16T10:11:50;13.20;;;8.47;;
4595;SDS011;2310;49.978;8.742;2024-01-16T10:15:52;12.00;;;7.47;;
4595;SDS011;2310;49.978;8.742;2024-01-16T10:19:56;9.43;;;6.83;;
4595;SDS011;2310;49.978;8.742;2024-01-16T10:24:10;10.23;;;7.40;;
4595;SDS011;2310;49.978;8.742;2024-01-16T10:28:12;10.90;;;7.00;;
4595;SDS011;2310;49.978;8.742;2024-01-16T10:32:27;11.30;;;7.50;;
4595;SDS011;2310;49.978;8.742;2024-01-16T10:36:33;10.63;;;7.37;;
4595;SDS011;2310;49.978;8.742;2024-01-16T10:40:34;11.00;;;6.70;;
4595;SDS011;2310;49.978;8.742;2024-01-16T10:44:36;14.83;;;7.97;;
4595;SDS011;2310;49.978;8.742;2024-01-16T10:48:39;12.90;;;7.20;;
4595;SDS011;2310;49.978;8.742;2024-01-16T10:52:46;11.67;;;8.17;;
4595;SDS011;2310;49.978;8.742;2024-01-16T10:56:49;13.00;;;9.17;;
4595;SDS011;2310;49.978;8.742;2024-01-16T11:00:52;13.93;;;8.90;;
4595;SDS011;2310;49.978;8.742;2024-01-16T11:04:54;11.30;;;7.40;;
4595;SDS011;2310;49.978;8.742;2024-01-16T11:08:58;16.73;;;9.67;;
4595;SDS011;2310;49.978;8.742;2024-01-16T11:13:01;14.30;;;8.60;;
4595;SDS011;2310;49.978;8.742;2024-01-16T11:17:05;13.07;;;8.00;;
4595;SDS011;2310;49.978;8.742;2024-01-16T11:21:10;16.73;;;8.20;;
4595;SDS011;2310;49.978;8.742;2024-01-16T11:25:16;15.37;;;9.60;;
4595;SDS011;2310;49.978;8.742;2024-01-16T11:37:41;11.57;;;7.57;;
4595;SDS011;2310;49.978;8.742;2024-01-16T11:41:47;15.70;;;7.83;;
4595;SDS011;2310;49.978;8.742;2024-01-16T11:45:50;12.00;;;7.00;;
4595;SDS011;2310;49.978;8.742;2024-01-16T11:50:13;16.17;;;8.80;;
4595;SDS011;2310;49.978;8.742;2024-01-16T11:54:15;12.17;;;6.80;;
4595;SDS011;2310;49.978;8.742;2024-01-16T11:58:24;12.87;;;7.30;;
4595;SDS011;2310;49.978;8.742;2024-01-16T12:02:52;12.97;;;7.23;;
4595;SDS011;2310;49.978;8.742;2024-01-16T12:06:57;8.40;;;6.63;;
4595;SDS011;2310;49.978;8.742;2024-01-16T12:11:00;9.17;;;6.10;;
4595;SDS011;2310;49.978;8.742;2024-01-16T12:15:01;12.27;;;6.50;;
4595;SDS011;2310;49.978;8.742;2024-01-16T12:19:05;14.77;;;8.37;;
4595;SDS011;2310;49.978;8.742;2024-01-16T12:23:09;8.73;;;5.40;;
4595;SDS011;2310;49.978;8.742;2024-01-16T12:27:11;11.20;;;6.33;;
4595;SDS011;2310;49.978;8.742;2024-01-16T12:31:17;7.53;;;5.40;;
4595;SDS011;2310;49.978;8.742;2024-01-16T12:35:20;8.53;;;5.93;;
4595;SDS011;2310;49.978;8.742;2024-01-16T12:39:22;13.67;;;6.10;;
4595;SDS011;2310;49.978;8.742;2024-01-16T12:43:24;10.50;;;6.83;;
4595;SDS011;2310;49.978;8.742;2024-01-16T12:47:25;9.00;;;4.80;;
4595;SDS011;2310;49.978;8.742;2024-01-16T12:51:27;10.40;;;5.40;;
4595;SDS011;2310;49.978;8.742;2024-01-16T12:55:28;10.27;;;5.97;;
4595;SDS011;2310;49.978;8.742;2024-01-16T12:59:30;10.17;;;5.20;;
4595;SDS011;2310;49.978;8.742;2024-01-16T13:03:32;9.33;;;6.20;;
4595;SDS011;2310;49.978;8.742;2024-01-16T13:07:33;10.70;;;5.90;;
4595;SDS011;2310;49.978;8.742;2024-01-16T13:11:48;13.60;;;8.20;;
4595;SDS011;2310;49.978;8.742;2024-01-16T13:15:52;14.33;;;6.87;;
4595;SDS011;2310;49.978;8.742;2024-01-16T13:19:54;12.23;;;6.90;;
4595;SDS011;2310;49.978;8.742;2024-01-16T13:23:55;12.10;;;6.97;;
4595;SDS011;2310;49.978;8.742;2024-01-16T13:27:57;10.20;;;7.73;;
4595;SDS011;2310;49.978;8.742;2024-01-16T13:31:59;11.40;;;7.30;;
4595;SDS011;2310;49.978;8.742;2024-01-16T13:36:01;11.07;;;7.30;;
4595;SDS011;2310;49.978;8.742;2024-01-16T13:40:05;10.67;;;6.47;;
4595;SDS011;2310;49.978;8.742;2024-01-16T13:44:10;14.97;;;7.27;;
4595;SDS011;2310;49.978;8.742;2024-01-16T13:48:12;12.80;;;6.13;;
4595;SDS011;2310;49.978;8.742;2024-01-16T13:52:14;9.20;;;5.43;;
4595;SDS011;2310;49.978;8.742;2024-01-16T13:56:15;10.97;;;6.43;;
4595;SDS011;2310;49.978;8.742;2024-01-16T14:00:19;10.00;;;6.20;;
4595;SDS011;2310;49.978;8.742;2024-01-16T14:04:21;14.73;;;6.47;;
4595;SDS011;2310;49.978;8.742;2024-01-16T14:08:22;11.77;;;5.87;;
4595;SDS011;2310;49.978;8.742;2024-01-16T14:12:23;9.30;;;6.00;;
4595;SDS011;2310;49.978;8.742;2024-01-16T14:16:28;11.83;;;6.23;;
4595;SDS011;2310;49.978;8.742;2024-01-16T14:20:31;8.93;;;6.13;;
4595;SDS011;2310;49.978;8.742;2024-01-16T14:24:32;11.03;;;5.70;;
4595;SDS011;2310;49.978;8.742;2024-01-16T14:28:34;8.10;;;5.60;;
4595;SDS011;2310;49.978;8.742;2024-01-16T14:32:41;9.40;;;6.43;;
4595;SDS011;2310;49.978;8.742;2024-01-16T14:36:41;9.87;;;6.10;;
4595;SDS011;2310;49.978;8.742;2024-01-16T14:40:43;12.73;;;6.50;;
4595;SDS011;2310;49.978;8.742;2024-01-16T14:44:45;13.80;;;5.80;;
4595;SDS011;2310;49.978;8.742;2024-01-16T14:48:46;9.50;;;6.40;;
4595;SDS011;2310;49.978;8.742;2024-01-16T14:52:48;10.27;;;6.20;;
4595;SDS011;2310;49.978;8.742;2024-01-16T14:56:52;18.17;;;7.53;;
4595;SDS011;2310;49.978;8.742;2024-01-16T15:00:54;12.50;;;5.87;;
4595;SDS011;2310;49.978;8.742;2024-01-16T15:04:56;11.87;;;5.83;;
4595;SDS011;2310;49.978;8.742;2024-01-16T15:08:58;13.43;;;6.87;;
4595;SDS011;2310;49.978;8.742;2024-01-16T15:12:59;14.17;;;6.93;;
4595;SDS011;2310;49.978;8.742;2024-01-16T15:17:01;11.73;;;6.60;;
4595;SDS011;2310;49.978;8.742;2024-01-16T15:21:03;14.80;;;6.37;;
4595;SDS011;2310;49.978;8.742;2024-01-16T15:25:06;11.83;;;6.90;;
4595;SDS011;2310;49.978;8.742;2024-01-16T15:29:08;13.10;;;7.50;;
4595;SDS011;2310;49.978;8.742;2024-01-16T15:33:11;15.13;;;8.20;;
4595;SDS011;2310;49.978;8.742;2024-01-16T15:37:12;11.93;;;8.33;;
4595;SDS011;2310;49.978;8.742;2024-01-16T15:41:14;15.00;;;9.10;;
4595;SDS011;2310;49.978;8.742;2024-01-16T15:45:15;12.33;;;7.83;;
4595;SDS011;2310;49.978;8.742;2024-01-16T15:49:17;12.70;;;8.00;;
4595;SDS011;2310;49.978;8.742;2024-01-16T15:53:18;14.10;;;7.13;;
4595;SDS011;2310;49.978;8.742;2024-01-16T15:57:20;13.53;;;7.90;;
4595;SDS011;2310;49.978;8.742;2024-01-16T16:01:21;11.17;;;7.40;;
4595;SDS011;2310;49.978;8.742;2024-01-16T16:05:23;13.57;;;7.90;;
4595;SDS011;2310;49.978;8.742;2024-01-16T16:09:26;11.03;;;6.20;;
4595;SDS011;2310;49.978;8.742;2024-01-16T16:13:29;9.17;;;5.97;;
4595;SDS011;2310;49.978;8.742;2024-01-16T16:17:32;11.77;;;6.73;;
4595;SDS011;2310;49.978;8.742;2024-01-16T16:21:33;13.90;;;7.37;;
4595;SDS011;2310;49.978;8.742;2024-01-16T16:25:35;9.03;;;6.57;;
4595;SDS011;2310;49.978;8.742;2024-01-16T16:29:40;17.63;;;9.83;;
4595;SDS011;2310;49.978;8.742;2024-01-16T16:33:41;10.10;;;6.90;;
4595;SDS011;2310;49.978;8.742;2024-01-16T16:37:43;11.60;;;7.60;;
4595;SDS011;2310;49.978;8.742;2024-01-16T16:41:45;14.70;;;8.73;;
4595;SDS011;2310;49.978;8.742;2024-01-16T16:45:47;16.00;;;8.50;;
4595;SDS011;2310;49.978;8.742;2024-01-16T16:49:50;14.10;;;7.20;;
4595;SDS011;2310;49.978;8.742;2024-01-16T16:53:51;11.17;;;7.27;;
4595;SDS011;2310;49.978;8.742;2024-01-16T16:57:53;13.80;;;7.40;;
4595;SDS011;2310;49.978;8.742;2024-01-16T17:01:56;12.27;;;7.67;;
4595;SDS011;2310;49.978;8.742;2024-01-16T17:05:59;13.00;;;6.27;;
4595;SDS011;2310;49.978;8.742;2024-01-16T17:10:01;12.40;;;7.37;;
4595;SDS011;2310;49.978;8.742;2024-01-16T17:14:02;11.70;;;7.80;;
4595;SDS011;2310;49.978;8.742;2024-01-16T17:18:04;10.20;;;6.20;;
4595;SDS011;2310;49.978;8.742;2024-01-16T17:22:07;11.50;;;6.70;;
4595;SDS011;2310;49.978;8.742;2024-01-16T17:26:09;10.60;;;6.43;;
4595;SDS011;2310;49.978;8.742;2024-01-16T17:30:10;10.07;;;6.30;;
4595;SDS011;2310;49.978;8.742;2024-01-16T17:34:12;10.80;;;6.53;;
4595;SDS011;2310;49.978;8.742;2024-01-16T17:38:14;9.73;;;7.10;;
4595;SDS011;2310;49.978;8.742;2024-01-16T17:42:16;10.93;;;6.60;;
4595;SDS011;2310;49.978;8.742;2024-01-16T17:46:17;12.20;;;6.33;;
4595;SDS011;2310;49.978;8.742;2024-01-16T17:50:20;13.40;;;8.30;;
4595;SDS011;2310;49.978;8.742;2024-01-16T17:54:22;12.70;;;7.97;;
4595;SDS011;2310;49.978;8.742;2024-01-16T17:58:23;14.00;;;7.53;;
4595;SDS011;2310;49.978;8.742;2024-01-16T18:02:26;12.47;;;9.80;;
4595;SDS011;2310;49.978;8.742;2024-01-16T18:06:28;15.03;;;10.60;;
4595;SDS011;2310;49.978;8.742;2024-01-16T18:10:29;14.63;;;10.13;;
4595;SDS011;2310;49.978;8.742;2024-01-16T18:14:31;16.93;;;10.43;;
4595;SDS011;2310;49.978;8.742;2024-01-16T18:18:32;14.77;;;9.33;;
4595;SDS011;2310;49.978;8.742;2024-01-16T18:22:34;15.97;;;10.37;;
4595;SDS011;2310;49.978;8.742;2024-01-16T18:26:36;11.23;;;8.73;;
4595;SDS011;2310;49.978;8.742;2024-01-16T18:30:39;11.87;;;8.13;;
4595;SDS011;2310;49.978;8.742;2024-01-16T18:34:40;13.67;;;8.30;;
4595;SDS011;2310;49.978;8.742;2024-01-16T18:38:44;13.43;;;8.80;;
4595;SDS011;2310;49.978;8.742;2024-01-16T18:42:47;12.70;;;7.77;;
4595;SDS011;2310;49.978;8.742;2024-01-16T18:46:49;13.83;;;8.63;;
4595;SDS011;2310;49.978;8.742;2024-01-16T18:50:51;13.00;;;8.17;;
4595;SDS011;2310;49.978;8.742;2024-01-16T18:54:54;12.67;;;7.80;;
4595;SDS011;2310;49.978;8.742;2024-01-16T18:58:55;16.40;;;7.37;;
4595;SDS011;2310;49.978;8.742;2024-01-16T19:02:57;16.57;;;8.47;;
4595;SDS011;2310;49.978;8.742;2024-01-16T19:06:59;13.30;;;8.43;;
4595;SDS011;2310;49.978;8.742;2024-01-16T19:11:01;13.63;;;8.77;;
4595;SDS011;2310;49.978;8.742;2024-01-16T19:15:03;14.33;;;8.63;;
4595;SDS011;2310;49.978;8.742;2024-01-16T19:19:05;18.27;;;10.63;;
4595;SDS011;2310;49.978;8.742;2024-01-16T19:23:08;15.60;;;9.97;;
4595;SDS011;2310;49.978;8.742;2024-01-16T19:27:10;10.47;;;7.87;;
4595;SDS011;2310;49.978;8.742;2024-01-16T19:31:12;13.20;;;8.23;;
4595;SDS011;2310;49.978;8.742;2024-01-16T19:35:14;12.40;;;8.63;;
4595;SDS011;2310;49.978;8.742;2024-01-16T19:39:15;16.03;;;9.10;;
4595;SDS011;2310;49.978;8.742;2024-01-16T19:43:16;12.87;;;7.87;;
4595;SDS011;2310;49.978;8.742;2024-01-16T19:47:18;12.80;;;7.83;;
4595;SDS011;2310;49.978;8.742;2024-01-16T19:51:20;23.47;;;12.40;;
4595;SDS011;2310;49.978;8.742;2024-01-16T19:55:21;21.20;;;13.77;;
4595;SDS011;2310;49.978;8.742;2024-01-16T19:59:24;15.57;;;10.17;;
4595;SDS011;2310;49.978;8.742;2024-01-16T20:03:26;12.10;;;7.90;;
4595;SDS011;2310;49.978;8.742;2024-01-16T20:07:28;15.70;;;8.70;;
4595;SDS011;2310;49.978;8.742;2024-01-16T20:11:30;14.90;;;8.60;;
4595;SDS011;2310;49.978;8.742;2024-01-16T20:15:33;22.97;;;17.73;;
4595;SDS011;2310;49.978;8.742;2024-01-16T20:19:34;22.00;;;16.93;;
4595;SDS011;2310;49.978;8.742;2024-01-16T20:23:36;18.20;;;11.23;;
4595;SDS011;2310;49.978;8.742;2024-01-16T20:27:38;14.53;;;11.57;;
4595;SDS011;2310;49.978;8.742;2024-01-16T20:31:42;16.90;;;9.70;;
4595;SDS011;2310;49.978;8.742;2024-01-16T20:35:46;15.10;;;10.10;;
4595;SDS011;2310;49.978;8.742;2024-01-16T20:39:47;17.63;;;10.37;;
4595;SDS011;2310;49.978;8.742;2024-01-16T20:43:49;15.73;;;10.17;;
4595;SDS011;2310;49.978;8.742;2024-01-16T20:47:50;15.53;;;12.33;;
4595;SDS011;2310;49.978;8.742;2024-01-16T20:51:52;20.80;;;13.03;;
4595;SDS011;2310;49.978;8.742;2024-01-16T20:55:55;15.67;;;13.20;;
4595;SDS011;2310;49.978;8.742;2024-01-16T20:59:57;16.80;;;11.83;;
4595;SDS011;2310;49.978;8.742;2024-01-16T21:03:58;18.90;;;12.43;;
4595;SDS011;2310;49.978;8.742;2024-01-16T21:08:00;17.90;;;10.70;;
4595;SDS011;2310;49.978;8.742;2024-01-16T21:12:01;20.50;;;11.07;;
4595;SDS011;2310;49.978;8.742;2024-01-16T21:16:05;18.50;;;10.90;;
4595;SDS011;2310;49.978;8.742;2024-01-16T21:20:07;22.70;;;12.00;;
4595;SDS011;2310;49.978;8.742;2024-01-16T21:24:09;18.10;;;12.40;;
4595;SDS011;2310;49.978;8.742;2024-01-16T21:28:13;16.83;;;10.53;;
4595;SDS011;2310;49.978;8.742;2024-01-16T21:32:14;20.40;;;11.63;;
4595;SDS011;2310;49.978;8.742;2024-01-16T21:36:16;14.23;;;11.10;;
4595;SDS011;2310;49.978;8.742;2024-01-16T21:40:17;15.20;;;9.67;;
4595;SDS011;2310;49.978;8.742;2024-01-16T21:44:19;18.13;;;11.13;;
4595;SDS011;2310;49.978;8.742;2024-01-16T21:48:20;17.23;;;10.17;;
4595;SDS011;2310;49.978;8.742;2024-01-16T21:52:22;15.73;;;10.37;;
4595;SDS011;2310;49.978;8.742;2024-01-16T21:56:24;15.60;;;9.90;;
4595;SDS011;2310;49.978;8.742;2024-01-16T22:00:26;15.47;;;11.07;;
4595;SDS011;2310;49.978;8.742;2024-01-16T22:04:28;14.70;;;11.30;;
4595;SDS011;2310;49.978;8.742;2024-01-16T22:08:30;16.77;;;11.43;;
4595;SDS011;2310;49.978;8.742;2024-01-16T22:12:31;19.70;;;10.40;;
4595;SDS011;2310;49.978;8.742;2024-01-16T22:16:34;14.97;;;10.33;;
4595;SDS011;2310;49.978;8.742;2024-01-16T22:20:35;13.10;;;10.90;;
4595;SDS011;2310;49.978;8.742;2024-01-16T22:24:37;19.20;;;11.60;;
4595;SDS011;2310;49.978;8.742;2024-01-16T22:28:38;16.43;;;11.50;;
4595;SDS011;2310;49.978;8.742;2024-01-16T22:32:41;16.10;;;11.33;;
4595;SDS011;2310;49.978;8.742;2024-01-16T22:36:43;18.00;;;11.80;;
4595;SDS011;2310;49.978;8.742;2024-01-16T22:40:45;17.30;;;11.57;;
4595;SDS011;2310;49.978;8.742;2024-01-16T22:44:47;18.87;;;12.17;;
4595;SDS011;2310;49.978;8.742;2024-01-16T22:48:49;17.20;;;11.57;;
4595;SDS011;2310;49.978;8.742;2024-01-16T22:52:51;18.00;;;11.63;;
4595;SDS011;2310;49.978;8.742;2024-01-16T22:56:52;16.67;;;11.67;;
4595;SDS011;2310;49.978;8.742;2024-01-16T23:00:54;15.40;;;11.70;;
4595;SDS011;2310;49.978;8.742;2024-01-16T23:04:55;16.10;;;12.57;;
4595;SDS011;2310;49.978;8.742;2024-01-16T23:08:57;15.47;;;12.77;;
4595;SDS011;2310;49.978;8.742;2024-01-16T23:13:01;16.30;;;12.10;;
4595;SDS011;2310;49.978;8.742;2024-01-16T23:17:03;20.40;;;12.87;;
4595;SDS011;2310;49.978;8.742;2024-01-16T23:21:04;18.20;;;13.07;;
4595;SDS011;2310;49.978;8.742;2024-01-16T23:25:06;17.37;;;12.63;;
4595;SDS011;2310;49.978;8.742;2024-01-16T23:29:10;23.50;;;12.50;;
4595;SDS011;2310;49.978;8.742;2024-01-16T23:33:12;22.67;;;12.77;;
4595;SDS011;2310;49.978;8.742;2024-01-16T23:37:13;19.27;;;13.77;;
4595;SDS011;2310;49.978;8.742;2024-01-16T23:41:17;18.10;;;13.10;;
4595;SDS011;2310;49.978;8.742;2024-01-16T23:45:19;24.17;;;15.47;;
4595;SDS011;2310;49.978;8.742;2024-01-16T23:49:22;23.63;;;15.53;;
4595;SDS011;2310;49.978;8.742;2024-01-16T23:53:23;15.97;;;14.27;;
4595;SDS011;2310;49.978;8.742;2024-01-16T23:57:25;27.50;;;15.43;;
